PWSweather.com
Personal Weather Stations
Station Observations
WAREHAM1
West Wareham, MA 02576

West Wareham, MA 02576

Lat: 41.7961059, Lon: -70.775612

Elevation: 88

Station Type: Davis Vantage Vue

http://www.gateway2capecod.com

Latest ConditionsUpdated 9:33:28 PM EDT Sunday, Aug 19, 2018
Currently Today's Max Today's Min Today's Average
Temperature 65.8°F18.8°C 69.1°F20.6°C 64.4°F18.0°C 66.5°F19.2°C
Dew Point 64.0°F17.8°C 66.0°F18.9°C 62.1°F16.7°C 63.3°F17.4°C
Winds 0.9 mph N1.4 kmh N 4.9 mph -7.9 kmh - - 2.5 mph 4.0 kmh
Wind Gusts 8.1 mph13.0 kmh 16.1 mph25.9 kmh - -
Humidity 94% 97% 80% 90%
Pressure 30.09 in1019.0 mb 30.09 in1019.0 mb 29.88 in1011.9 mb -
Precipitation - 0.01 in0.3 mm - -
Hour Temp Dew Point Humidity Winds Wind Gusts Pressure Precip Precip Rate Daily Precip Total
09:33 PM 65.8°F18.8°C 64.0°F17.8°C 94% 0.9 mph N1.4 kmh N 8.1 mph13.0 kmh 30.09 in1019.0 mb 0.00 in0.0 mm 0.00 in0.0 mm 0.01 in0.3 mm
09:23 PM 66.2°F19.0°C 64.0°F17.8°C 93% 2.9 mph ESE4.7 kmh ESE 9.0 mph14.5 kmh 30.09 in1019.0 mb 0.00 in0.0 mm 0.00 in0.0 mm 0.01 in0.3 mm
09:13 PM 66.7°F19.3°C 64.0°F17.8°C 91% 2.0 mph NE3.2 kmh NE 6.9 mph11.1 kmh 30.09 in1019.0 mb 0.00 in0.0 mm 0.00 in0.0 mm 0.01 in0.3 mm
09:03 PM 66.6°F19.2°C 63.9°F17.7°C 91% 0.9 mph ENE1.4 kmh ENE 4.9 mph7.9 kmh 30.09 in1019.0 mb 0.00 in0.0 mm 0.00 in0.0 mm 0.01 in0.3 mm
08:53 PM 66.6°F19.2°C 63.5°F17.5°C 90% 2.0 mph NE3.2 kmh NE 7.0 mph11.3 kmh 30.08 in1018.6 mb 0.00 in0.0 mm 0.00 in0.0 mm 0.01 in0.3 mm
08:43 PM 66.6°F19.2°C 63.5°F17.5°C 90% 0.9 mph NE1.4 kmh NE 6.0 mph9.7 kmh 30.08 in1018.6 mb 0.00 in0.0 mm 0.00 in0.0 mm 0.01 in0.3 mm
08:33 PM 66.6°F19.2°C 63.5°F17.5°C 90% 2.0 mph ENE3.2 kmh ENE 6.9 mph11.1 kmh 30.08 in1018.6 mb 0.00 in0.0 mm 0.00 in0.0 mm 0.01 in0.3 mm
08:23 PM 66.6°F19.2°C 63.5°F17.5°C 90% 0.9 mph E1.4 kmh E 8.9 mph14.3 kmh 30.08 in1018.6 mb 0.00 in0.0 mm 0.00 in0.0 mm 0.01 in0.3 mm
08:13 PM 66.6°F19.2°C 63.1°F17.3°C 89% 0.9 mph E1.4 kmh E 2.9 mph4.7 kmh 30.07 in1018.3 mb 0.00 in0.0 mm 0.00 in0.0 mm 0.01 in0.3 mm
08:03 PM 66.4°F19.1°C 63.0°F17.2°C 89% 0.9 mph 1.4 kmh 6.0 mph9.7 kmh 30.07 in1018.3 mb 0.00 in0.0 mm 0.00 in0.0 mm 0.01 in0.3 mm
07:53 PM 66.4°F19.1°C 63.0°F17.2°C 89% 0.9 mph E1.4 kmh E 7.0 mph11.3 kmh 30.07 in1018.3 mb 0.00 in0.0 mm 0.00 in0.0 mm 0.01 in0.3 mm
07:43 PM 66.6°F19.2°C 63.1°F17.3°C 89% 0.9 mph E1.4 kmh E 6.0 mph9.7 kmh 30.06 in1017.9 mb 0.00 in0.0 mm 0.00 in0.0 mm 0.01 in0.3 mm
07:33 PM 66.6°F19.2°C 63.0°F17.2°C 88% 2.0 mph ENE3.2 kmh ENE 6.9 mph11.1 kmh 30.06 in1017.9 mb 0.00 in0.0 mm 0.00 in0.0 mm 0.01 in0.3 mm
07:23 PM 66.6°F19.2°C 63.0°F17.2°C 88% 0.9 mph NE1.4 kmh NE 6.9 mph11.1 kmh 30.06 in1017.9 mb 0.00 in0.0 mm 0.00 in0.0 mm 0.01 in0.3 mm
07:13 PM 66.7°F19.3°C 63.1°F17.3°C 88% 2.0 mph ENE3.2 kmh ENE 11.0 mph17.7 kmh 30.06 in1017.9 mb 0.00 in0.0 mm 0.00 in0.0 mm 0.01 in0.3 mm
07:03 PM 66.7°F19.3°C 62.8°F17.1°C 87% 2.0 mph N3.2 kmh N 6.9 mph11.1 kmh 30.06 in1017.9 mb 0.00 in0.0 mm 0.00 in0.0 mm 0.01 in0.3 mm
06:53 PM 66.9°F19.4°C 63.0°F17.2°C 87% 2.0 mph NE3.2 kmh NE 8.1 mph13.0 kmh 30.06 in1017.9 mb 0.00 in0.0 mm 0.00 in0.0 mm 0.01 in0.3 mm
06:43 PM 67.1°F19.5°C 62.8°F17.1°C 86% 2.0 mph ENE3.2 kmh ENE 6.9 mph11.1 kmh 30.06 in1017.9 mb 0.00 in0.0 mm 0.00 in0.0 mm 0.01 in0.3 mm
06:33 PM 67.3°F19.6°C 63.3°F17.4°C 87% 2.0 mph ENE3.2 kmh ENE 6.0 mph9.7 kmh 30.05 in1017.6 mb 0.00 in0.0 mm 0.00 in0.0 mm 0.01 in0.3 mm
06:23 PM 67.1°F19.5°C 62.8°F17.1°C 86% 2.9 mph E4.7 kmh E 10.1 mph16.3 kmh 30.05 in1017.6 mb 0.00 in0.0 mm 0.00 in0.0 mm 0.01 in0.3 mm
06:13 PM 67.1°F19.5°C 62.8°F17.1°C 86% 2.0 mph NW3.2 kmh NW 6.9 mph11.1 kmh 30.05 in1017.6 mb 0.00 in0.0 mm 0.00 in0.0 mm 0.01 in0.3 mm
06:03 PM 66.6°F19.2°C 63.0°F17.2°C 88% 2.0 mph E3.2 kmh E 10.1 mph16.3 kmh 30.05 in1017.6 mb 0.00 in0.0 mm 0.00 in0.0 mm 0.01 in0.3 mm
05:53 PM 66.2°F19.0°C 62.8°F17.1°C 89% 2.0 mph NW3.2 kmh NW 8.1 mph13.0 kmh 30.05 in1017.6 mb 0.00 in0.0 mm 0.00 in0.0 mm 0.01 in0.3 mm
05:43 PM 66.4°F19.1°C 63.0°F17.2°C 89% 2.9 mph E4.7 kmh E 6.0 mph9.7 kmh 30.05 in1017.6 mb 0.00 in0.0 mm 0.00 in0.0 mm 0.01 in0.3 mm
05:33 PM 66.6°F19.2°C 63.0°F17.2°C 88% 2.9 mph ENE4.7 kmh ENE 6.9 mph11.1 kmh 30.05 in1017.6 mb 0.00 in0.0 mm 0.00 in0.0 mm 0.01 in0.3 mm
05:23 PM 66.6°F19.2°C 63.0°F17.2°C 88% 2.0 mph NE3.2 kmh NE 11.0 mph17.7 kmh 30.05 in1017.6 mb 0.00 in0.0 mm 0.00 in0.0 mm 0.01 in0.3 mm
05:13 PM 66.6°F19.2°C 63.0°F17.2°C 88% 2.0 mph ENE3.2 kmh ENE 8.9 mph14.3 kmh 30.05 in1017.6 mb 0.00 in0.0 mm 0.00 in0.0 mm 0.01 in0.3 mm
05:03 PM 66.6°F19.2°C 63.0°F17.2°C 88% 2.9 mph ENE4.7 kmh ENE 10.1 mph16.3 kmh 30.05 in1017.6 mb 0.00 in0.0 mm 0.00 in0.0 mm 0.01 in0.3 mm
04:53 PM 66.7°F19.3°C 62.8°F17.1°C 87% 2.9 mph E4.7 kmh E 10.1 mph16.3 kmh 30.05 in1017.6 mb 0.00 in0.0 mm 0.00 in0.0 mm 0.01 in0.3 mm
04:43 PM 66.9°F19.4°C 63.0°F17.2°C 87% 2.9 mph NE4.7 kmh NE 8.1 mph13.0 kmh 30.04 in1017.3 mb 0.00 in0.0 mm 0.00 in0.0 mm 0.01 in0.3 mm
04:33 PM 67.3°F19.6°C 63.0°F17.2°C 86% 4.0 mph ENE6.4 kmh ENE 12.1 mph19.5 kmh 30.04 in1017.3 mb 0.00 in0.0 mm 0.00 in0.0 mm 0.01 in0.3 mm
04:23 PM 67.6°F19.8°C 63.0°F17.2°C 85% 4.0 mph NE6.4 kmh NE 15.0 mph24.1 kmh 30.04 in1017.3 mb 0.00 in0.0 mm 0.00 in0.0 mm 0.01 in0.3 mm
04:13 PM 67.6°F19.8°C 63.0°F17.2°C 85% 2.9 mph NNE4.7 kmh NNE 12.1 mph19.5 kmh 30.04 in1017.3 mb 0.00 in0.0 mm 0.00 in0.0 mm 0.01 in0.3 mm
04:03 PM 67.5°F19.7°C 63.1°F17.3°C 86% 4.0 mph E6.4 kmh E 10.1 mph16.3 kmh 30.04 in1017.3 mb 0.00 in0.0 mm 0.00 in0.0 mm 0.01 in0.3 mm
03:53 PM 67.6°F19.8°C 63.0°F17.2°C 85% 2.9 mph NW4.7 kmh NW 12.1 mph19.5 kmh 30.04 in1017.3 mb 0.00 in0.0 mm 0.00 in0.0 mm 0.01 in0.3 mm
03:43 PM 67.6°F19.8°C 63.3°F17.4°C 86% 2.9 mph NE4.7 kmh NE 11.0 mph17.7 kmh 30.04 in1017.3 mb 0.00 in0.0 mm 0.00 in0.0 mm 0.01 in0.3 mm
03:33 PM 67.5°F19.7°C 63.1°F17.3°C 86% 2.9 mph E4.7 kmh E 13.0 mph20.9 kmh 30.03 in1016.9 mb 0.00 in0.0 mm 0.00 in0.0 mm 0.01 in0.3 mm
03:23 PM 67.5°F19.7°C 62.8°F17.1°C 85% 4.0 mph NE6.4 kmh NE 13.0 mph20.9 kmh 30.03 in1016.9 mb 0.00 in0.0 mm 0.00 in0.0 mm 0.01 in0.3 mm
03:13 PM 67.6°F19.8°C 63.0°F17.2°C 85% 2.9 mph ENE4.7 kmh ENE 11.0 mph17.7 kmh 30.03 in1016.9 mb 0.00 in0.0 mm 0.00 in0.0 mm 0.01 in0.3 mm
03:03 PM 67.8°F19.9°C 62.8°F17.1°C 84% 2.9 mph ENE4.7 kmh ENE 9.0 mph14.5 kmh 30.03 in1016.9 mb 0.00 in0.0 mm 0.00 in0.0 mm 0.01 in0.3 mm
02:53 PM 67.6°F19.8°C 63.0°F17.2°C 85% 2.9 mph NNE4.7 kmh NNE 10.1 mph16.3 kmh 30.03 in1016.9 mb 0.00 in0.0 mm 0.00 in0.0 mm 0.01 in0.3 mm
02:43 PM 67.5°F19.7°C 62.4°F16.9°C 84% 4.0 mph NE6.4 kmh NE 10.1 mph16.3 kmh 30.03 in1016.9 mb 0.00 in0.0 mm 0.00 in0.0 mm 0.01 in0.3 mm
02:33 PM 67.8°F19.9°C 62.8°F17.1°C 84% 2.9 mph ENE4.7 kmh ENE 8.1 mph13.0 kmh 30.03 in1016.9 mb 0.00 in0.0 mm 0.00 in0.0 mm 0.01 in0.3 mm
02:23 PM 68.0°F20.0°C 62.6°F17.0°C 83% 2.9 mph NNE4.7 kmh NNE 10.1 mph16.3 kmh 30.03 in1016.9 mb 0.00 in0.0 mm 0.00 in0.0 mm 0.01 in0.3 mm
02:13 PM 68.0°F20.0°C 63.0°F17.2°C 84% 2.9 mph NNW4.7 kmh NNW 12.1 mph19.5 kmh 30.03 in1016.9 mb 0.00 in0.0 mm 0.00 in0.0 mm 0.01 in0.3 mm
02:03 PM 68.2°F20.1°C 62.8°F17.1°C 83% 4.0 mph N6.4 kmh N 11.0 mph17.7 kmh 30.03 in1016.9 mb 0.00 in0.0 mm 0.00 in0.0 mm 0.01 in0.3 mm
01:53 PM 68.4°F20.2°C 63.0°F17.2°C 83% 4.9 mph ENE7.9 kmh ENE 14.1 mph22.7 kmh 30.03 in1016.9 mb 0.00 in0.0 mm 0.00 in0.0 mm 0.01 in0.3 mm
01:43 PM 68.5°F20.3°C 62.8°F17.1°C 82% 4.0 mph E6.4 kmh E 16.1 mph25.9 kmh 30.02 in1016.6 mb 0.00 in0.0 mm 0.00 in0.0 mm 0.01 in0.3 mm
01:33 PM 68.7°F20.4°C 63.0°F17.2°C 82% 4.9 mph ENE7.9 kmh ENE 12.1 mph19.5 kmh 30.02 in1016.6 mb 0.00 in0.0 mm 0.00 in0.0 mm 0.01 in0.3 mm
01:23 PM 68.7°F20.4°C 63.0°F17.2°C 82% 2.9 mph E4.7 kmh E 11.0 mph17.7 kmh 30.02 in1016.6 mb 0.00 in0.0 mm 0.00 in0.0 mm 0.01 in0.3 mm
01:13 PM 68.5°F20.3°C 62.8°F17.1°C 82% 4.0 mph NE6.4 kmh NE 10.1 mph16.3 kmh 30.02 in1016.6 mb 0.00 in0.0 mm 0.00 in0.0 mm 0.01 in0.3 mm
01:03 PM 68.5°F20.3°C 62.8°F17.1°C 82% 4.0 mph E6.4 kmh E 12.1 mph19.5 kmh 30.02 in1016.6 mb 0.00 in0.0 mm 0.00 in0.0 mm 0.01 in0.3 mm
12:53 PM 68.9°F20.5°C 62.8°F17.1°C 81% 4.0 mph NE6.4 kmh NE 8.9 mph14.3 kmh 30.02 in1016.6 mb 0.00 in0.0 mm 0.00 in0.0 mm 0.01 in0.3 mm
12:43 PM 68.9°F20.5°C 62.4°F16.9°C 80% 4.0 mph SE6.4 kmh SE 10.1 mph16.3 kmh 30.01 in1016.3 mb 0.00 in0.0 mm 0.00 in0.0 mm 0.01 in0.3 mm
12:33 PM 69.1°F20.6°C 63.0°F17.2°C 81% 2.9 mph NNW4.7 kmh NNW 12.1 mph19.5 kmh 30.01 in1016.3 mb 0.00 in0.0 mm 0.00 in0.0 mm 0.01 in0.3 mm
12:23 PM 68.5°F20.3°C 62.1°F16.7°C 80% 4.0 mph ENE6.4 kmh ENE 14.1 mph22.7 kmh 30.02 in1016.6 mb 0.00 in0.0 mm 0.00 in0.0 mm 0.01 in0.3 mm
12:13 PM 68.9°F20.5°C 63.5°F17.5°C 83% 4.0 mph NE6.4 kmh NE 12.1 mph19.5 kmh 30.02 in1016.6 mb 0.00 in0.0 mm 0.00 in0.0 mm 0.01 in0.3 mm
12:03 PM 69.1°F20.6°C 63.3°F17.4°C 82% 4.9 mph NE7.9 kmh NE 15.0 mph24.1 kmh 30.02 in1016.6 mb 0.00 in0.0 mm 0.00 in0.0 mm 0.01 in0.3 mm
11:52 AM 69.1°F20.6°C 62.6°F17.0°C 80% 4.0 mph ENE6.4 kmh ENE 15.0 mph24.1 kmh 30.03 in1016.9 mb 0.00 in0.0 mm 0.00 in0.0 mm 0.01 in0.3 mm
11:42 AM 69.1°F20.6°C 63.3°F17.4°C 82% 4.0 mph NW6.4 kmh NW 13.0 mph20.9 kmh 30.03 in1016.9 mb 0.00 in0.0 mm 0.00 in0.0 mm 0.01 in0.3 mm
11:32 AM 68.7°F20.4°C 63.3°F17.4°C 83% 4.0 mph NE6.4 kmh NE 11.0 mph17.7 kmh 30.03 in1016.9 mb 0.00 in0.0 mm 0.00 in0.0 mm 0.01 in0.3 mm
11:22 AM 68.7°F20.4°C 63.0°F17.2°C 82% 4.0 mph ENE6.4 kmh ENE 13.0 mph20.9 kmh 30.03 in1016.9 mb 0.00 in0.0 mm 0.00 in0.0 mm 0.01 in0.3 mm
11:12 AM 68.7°F20.4°C 63.7°F17.6°C 84% 2.9 mph SE4.7 kmh SE 10.1 mph16.3 kmh 30.03 in1016.9 mb 0.00 in0.0 mm 0.00 in0.0 mm 0.01 in0.3 mm
11:02 AM 68.5°F20.3°C 63.1°F17.3°C 83% 2.9 mph NW4.7 kmh NW 10.1 mph16.3 kmh 30.02 in1016.6 mb 0.00 in0.0 mm 0.00 in0.0 mm 0.01 in0.3 mm
10:52 AM 68.7°F20.4°C 63.3°F17.4°C 83% 4.0 mph ENE6.4 kmh ENE 11.0 mph17.7 kmh 30.02 in1016.6 mb 0.00 in0.0 mm 0.00 in0.0 mm 0.01 in0.3 mm
10:42 AM 68.5°F20.3°C 63.5°F17.5°C 84% 2.9 mph N4.7 kmh N 11.0 mph17.7 kmh 30.01 in1016.3 mb 0.00 in0.0 mm 0.00 in0.0 mm 0.01 in0.3 mm
10:32 AM 68.2°F20.1°C 63.5°F17.5°C 85% 4.0 mph ENE6.4 kmh ENE 15.0 mph24.1 kmh 30.01 in1016.3 mb 0.00 in0.0 mm 0.00 in0.0 mm 0.01 in0.3 mm
10:22 AM 68.0°F20.0°C 63.7°F17.6°C 86% 4.0 mph NE6.4 kmh NE 8.9 mph14.3 kmh 30.01 in1016.3 mb 0.00 in0.0 mm 0.00 in0.0 mm 0.01 in0.3 mm
10:12 AM 67.6°F19.8°C 63.7°F17.6°C 87% 2.0 mph NNE3.2 kmh NNE 8.9 mph14.3 kmh 30.01 in1016.3 mb 0.00 in0.0 mm 0.00 in0.0 mm 0.01 in0.3 mm
10:02 AM 67.3°F19.6°C 63.3°F17.4°C 87% 4.0 mph N6.4 kmh N 11.0 mph17.7 kmh 30.01 in1016.3 mb 0.00 in0.0 mm 0.00 in0.0 mm 0.01 in0.3 mm
09:52 AM 67.5°F19.7°C 63.5°F17.5°C 87% 2.9 mph NW4.7 kmh NW 10.1 mph16.3 kmh 30.01 in1016.3 mb 0.00 in0.0 mm 0.00 in0.0 mm 0.01 in0.3 mm
09:42 AM 66.9°F19.4°C 63.3°F17.4°C 88% 2.9 mph NE4.7 kmh NE 11.0 mph17.7 kmh 30.00 in1015.9 mb 0.00 in0.0 mm 0.00 in0.0 mm 0.01 in0.3 mm
09:32 AM 66.9°F19.4°C 63.3°F17.4°C 88% 2.9 mph ENE4.7 kmh ENE 11.0 mph17.7 kmh 30.00 in1015.9 mb 0.00 in0.0 mm 0.00 in0.0 mm 0.01 in0.3 mm
09:22 AM 66.9°F19.4°C 63.3°F17.4°C 88% 2.9 mph NE4.7 kmh NE 10.1 mph16.3 kmh 29.99 in1015.6 mb 0.00 in0.0 mm 0.00 in0.0 mm 0.01 in0.3 mm
09:12 AM 66.7°F19.3°C 63.3°F17.4°C 89% 2.9 mph SW4.7 kmh SW 8.1 mph13.0 kmh 29.99 in1015.6 mb 0.00 in0.0 mm 0.00 in0.0 mm 0.01 in0.3 mm
09:02 AM 66.6°F19.2°C 63.1°F17.3°C 89% 2.9 mph ENE4.7 kmh ENE 8.9 mph14.3 kmh 29.98 in1015.2 mb 0.00 in0.0 mm 0.00 in0.0 mm 0.01 in0.3 mm
08:52 AM 66.6°F19.2°C 63.1°F17.3°C 89% 2.9 mph E4.7 kmh E 8.9 mph14.3 kmh 29.98 in1015.2 mb 0.00 in0.0 mm 0.00 in0.0 mm 0.01 in0.3 mm
08:42 AM 66.4°F19.1°C 63.3°F17.4°C 90% 2.0 mph S3.2 kmh S 8.1 mph13.0 kmh 29.98 in1015.2 mb 0.00 in0.0 mm 0.00 in0.0 mm 0.01 in0.3 mm
08:32 AM 66.4°F19.1°C 63.3°F17.4°C 90% 2.9 mph NNE4.7 kmh NNE 8.1 mph13.0 kmh 29.98 in1015.2 mb 0.00 in0.0 mm 0.00 in0.0 mm 0.01 in0.3 mm
08:22 AM 66.0°F18.9°C 63.3°F17.4°C 91% 2.0 mph ENE3.2 kmh ENE 8.1 mph13.0 kmh 29.97 in1014.9 mb 0.00 in0.0 mm 0.00 in0.0 mm 0.01 in0.3 mm
08:12 AM 65.8°F18.8°C 63.1°F17.3°C 91% 4.0 mph NE6.4 kmh NE 10.1 mph16.3 kmh 29.97 in1014.9 mb 0.00 in0.0 mm 0.00 in0.0 mm 0.01 in0.3 mm
08:02 AM 65.7°F18.7°C 63.3°F17.4°C 92% 2.0 mph NNE3.2 kmh NNE 7.0 mph11.3 kmh 29.97 in1014.9 mb 0.00 in0.0 mm 0.00 in0.0 mm 0.01 in0.3 mm
07:52 AM 65.5°F18.6°C 63.3°F17.4°C 93% 2.0 mph E3.2 kmh E 6.0 mph9.7 kmh 29.97 in1014.9 mb 0.00 in0.0 mm 0.00 in0.0 mm 0.01 in0.3 mm
07:42 AM 65.5°F18.6°C 63.3°F17.4°C 93% 2.0 mph NE3.2 kmh NE 7.0 mph11.3 kmh 29.96 in1014.6 mb 0.00 in0.0 mm 0.00 in0.0 mm 0.01 in0.3 mm
07:32 AM 65.3°F18.5°C 63.1°F17.3°C 93% 2.0 mph NE3.2 kmh NE 6.0 mph9.7 kmh 29.95 in1014.2 mb 0.00 in0.0 mm 0.00 in0.0 mm 0.01 in0.3 mm
07:22 AM 65.1°F18.4°C 63.0°F17.2°C 93% 2.0 mph E3.2 kmh E 8.1 mph13.0 kmh 29.95 in1014.2 mb 0.00 in0.0 mm 0.00 in0.0 mm 0.01 in0.3 mm
07:12 AM 65.1°F18.4°C 63.0°F17.2°C 93% 2.0 mph NE3.2 kmh NE 8.9 mph14.3 kmh 29.95 in1014.2 mb 0.00 in0.0 mm 0.00 in0.0 mm 0.01 in0.3 mm
07:02 AM 65.1°F18.4°C 62.8°F17.1°C 92% 2.0 mph NE3.2 kmh NE 12.1 mph19.5 kmh 29.95 in1014.2 mb 0.00 in0.0 mm 0.00 in0.0 mm 0.01 in0.3 mm
06:52 AM 64.9°F18.3°C 62.6°F17.0°C 92% 2.0 mph NE3.2 kmh NE 6.0 mph9.7 kmh 29.95 in1014.2 mb 0.00 in0.0 mm 0.00 in0.0 mm 0.01 in0.3 mm
06:42 AM 64.9°F18.3°C 62.6°F17.0°C 92% 2.0 mph SE3.2 kmh SE 10.1 mph16.3 kmh 29.95 in1014.2 mb 0.00 in0.0 mm 0.00 in0.0 mm 0.01 in0.3 mm
06:32 AM 65.1°F18.4°C 62.8°F17.1°C 92% 2.0 mph ESE3.2 kmh ESE 10.1 mph16.3 kmh 29.94 in1013.9 mb 0.00 in0.0 mm 0.00 in0.0 mm 0.01 in0.3 mm
06:22 AM 65.1°F18.4°C 63.0°F17.2°C 93% 2.0 mph NW3.2 kmh NW 10.1 mph16.3 kmh 29.94 in1013.9 mb 0.00 in0.0 mm 0.00 in0.0 mm 0.01 in0.3 mm
06:12 AM 64.9°F18.3°C 62.8°F17.1°C 93% 0.9 mph NW1.4 kmh NW 8.1 mph13.0 kmh 29.93 in1013.5 mb 0.00 in0.0 mm 0.00 in0.0 mm 0.01 in0.3 mm
06:02 AM 64.9°F18.3°C 62.8°F17.1°C 93% 0.9 mph E1.4 kmh E 6.0 mph9.7 kmh 29.93 in1013.5 mb 0.00 in0.0 mm 0.00 in0.0 mm 0.01 in0.3 mm
05:52 AM 64.9°F18.3°C 62.8°F17.1°C 93% 2.0 mph ESE3.2 kmh ESE 6.9 mph11.1 kmh 29.93 in1013.5 mb 0.00 in0.0 mm 0.00 in0.0 mm 0.01 in0.3 mm
05:42 AM 64.9°F18.3°C 63.1°F17.3°C 94% 2.9 mph ENE4.7 kmh ENE 9.0 mph14.5 kmh 29.93 in1013.5 mb 0.00 in0.0 mm 0.00 in0.0 mm 0.01 in0.3 mm
05:32 AM 64.8°F18.2°C 63.3°F17.4°C 95% 2.0 mph E3.2 kmh E 8.9 mph14.3 kmh 29.92 in1013.2 mb 0.00 in0.0 mm 0.00 in0.0 mm 0.01 in0.3 mm
05:22 AM 64.8°F18.2°C 63.7°F17.6°C 96% 2.0 mph ENE3.2 kmh ENE 8.1 mph13.0 kmh 29.92 in1013.2 mb 0.00 in0.0 mm 0.00 in0.0 mm 0.01 in0.3 mm
05:12 AM 64.6°F18.1°C 63.5°F17.5°C 96% 0.9 mph NE1.4 kmh NE 4.9 mph7.9 kmh 29.92 in1013.2 mb 0.00 in0.0 mm 0.00 in0.0 mm 0.01 in0.3 mm
05:02 AM 64.6°F18.1°C 63.1°F17.3°C 95% 0.9 mph ENE1.4 kmh ENE 4.9 mph7.9 kmh 29.92 in1013.2 mb 0.00 in0.0 mm 0.00 in0.0 mm 0.01 in0.3 mm
04:52 AM 64.6°F18.1°C 63.1°F17.3°C 95% 0.9 mph E1.4 kmh E 6.9 mph11.1 kmh 29.92 in1013.2 mb 0.00 in0.0 mm 0.00 in0.0 mm 0.01 in0.3 mm
04:42 AM 64.4°F18.0°C 63.0°F17.2°C 95% 2.0 mph NE3.2 kmh NE 6.0 mph9.7 kmh 29.91 in1012.9 mb 0.00 in0.0 mm 0.00 in0.0 mm 0.01 in0.3 mm
04:32 AM 64.4°F18.0°C 63.0°F17.2°C 95% 2.0 mph NE3.2 kmh NE 8.1 mph13.0 kmh 29.91 in1012.9 mb 0.00 in0.0 mm 0.00 in0.0 mm 0.01 in0.3 mm
04:22 AM 64.4°F18.0°C 63.0°F17.2°C 95% 2.0 mph E3.2 kmh E 8.1 mph13.0 kmh 29.91 in1012.9 mb 0.00 in0.0 mm 0.00 in0.0 mm 0.01 in0.3 mm
04:12 AM 64.4°F18.0°C 63.3°F17.4°C 96% 2.0 mph NE3.2 kmh NE 8.1 mph13.0 kmh 29.91 in1012.9 mb 0.00 in0.0 mm 0.00 in0.0 mm 0.01 in0.3 mm
04:02 AM 64.6°F18.1°C 63.5°F17.5°C 96% 2.0 mph ESE3.2 kmh ESE 8.1 mph13.0 kmh 29.91 in1012.9 mb 0.00 in0.0 mm 0.00 in0.0 mm 0.01 in0.3 mm
03:52 AM 64.6°F18.1°C 63.5°F17.5°C 96% 0.9 mph NE1.4 kmh NE 6.0 mph9.7 kmh 29.91 in1012.9 mb 0.00 in0.0 mm 0.00 in0.0 mm 0.01 in0.3 mm
03:42 AM 64.8°F18.2°C 63.7°F17.6°C 96% 2.0 mph SE3.2 kmh SE 8.9 mph14.3 kmh 29.90 in1012.5 mb 0.00 in0.0 mm 0.00 in0.0 mm 0.01 in0.3 mm
03:32 AM 64.6°F18.1°C 63.5°F17.5°C 96% 2.0 mph NE3.2 kmh NE 8.1 mph13.0 kmh 29.91 in1012.9 mb 0.00 in0.0 mm 0.00 in0.0 mm 0.01 in0.3 mm
03:22 AM 64.6°F18.1°C 63.5°F17.5°C 96% 2.0 mph NW3.2 kmh NW 6.0 mph9.7 kmh 29.91 in1012.9 mb 0.00 in0.0 mm 0.00 in0.0 mm 0.01 in0.3 mm
03:12 AM 64.6°F18.1°C 63.5°F17.5°C 96% 2.0 mph N3.2 kmh N 6.9 mph11.1 kmh 29.91 in1012.9 mb 0.00 in0.0 mm 0.00 in0.0 mm 0.01 in0.3 mm
03:02 AM 64.6°F18.1°C 63.5°F17.5°C 96% 2.0 mph ENE3.2 kmh ENE 8.1 mph13.0 kmh 29.91 in1012.9 mb 0.00 in0.0 mm 0.00 in0.0 mm 0.01 in0.3 mm
02:52 AM 64.6°F18.1°C 63.5°F17.5°C 96% 2.0 mph E3.2 kmh E 8.9 mph14.3 kmh 29.91 in1012.9 mb 0.00 in0.0 mm 0.00 in0.0 mm 0.01 in0.3 mm
02:42 AM 64.6°F18.1°C 63.5°F17.5°C 96% 2.9 mph ENE4.7 kmh ENE 10.1 mph16.3 kmh 29.90 in1012.5 mb 0.01 in0.3 mm 0.00 in0.0 mm 0.01 in0.3 mm
02:32 AM 64.8°F18.2°C 63.7°F17.6°C 96% 2.0 mph NE3.2 kmh NE 8.1 mph13.0 kmh 29.90 in1012.5 mb 0.01 in0.3 mm 0.00 in0.0 mm 0.01 in0.3 mm
02:22 AM 64.8°F18.2°C 63.9°F17.7°C 97% 2.0 mph E3.2 kmh E 10.1 mph16.3 kmh 29.90 in1012.5 mb 0.01 in0.3 mm 0.00 in0.0 mm 0.01 in0.3 mm
02:12 AM 64.8°F18.2°C 63.9°F17.7°C 97% 2.9 mph NE4.7 kmh NE 10.1 mph16.3 kmh 29.90 in1012.5 mb 0.01 in0.3 mm 0.00 in0.0 mm 0.01 in0.3 mm
02:02 AM 64.9°F18.3°C 64.0°F17.8°C 97% 2.0 mph E3.2 kmh E 8.1 mph13.0 kmh 29.90 in1012.5 mb 0.01 in0.3 mm 0.00 in0.0 mm 0.01 in0.3 mm
01:52 AM 64.9°F18.3°C 64.0°F17.8°C 97% 2.9 mph E4.7 kmh E 12.1 mph19.5 kmh 29.89 in1012.2 mb 0.01 in0.3 mm 0.06 in1.5 mm 0.01 in0.3 mm
01:42 AM 65.1°F18.4°C 64.2°F17.9°C 97% 0.9 mph ENE1.4 kmh ENE 6.0 mph9.7 kmh 29.90 in1012.5 mb 0.00 in0.0 mm 0.00 in0.0 mm 0.01 in0.3 mm
01:32 AM 65.3°F18.5°C 64.4°F18.0°C 97% 2.0 mph E3.2 kmh E 10.1 mph16.3 kmh 29.90 in1012.5 mb 0.00 in0.0 mm 0.00 in0.0 mm 0.01 in0.3 mm
01:22 AM 65.5°F18.6°C 64.6°F18.1°C 97% 0.9 mph NNE1.4 kmh NNE 6.0 mph9.7 kmh 29.90 in1012.5 mb 0.00 in0.0 mm 0.00 in0.0 mm 0.01 in0.3 mm
01:12 AM 65.5°F18.6°C 64.6°F18.1°C 97% 0.9 mph N1.4 kmh N 4.9 mph7.9 kmh 29.90 in1012.5 mb 0.00 in0.0 mm 0.00 in0.0 mm 0.01 in0.3 mm
01:02 AM 65.5°F18.6°C 64.6°F18.1°C 97% 2.0 mph NE3.2 kmh NE 8.1 mph13.0 kmh 29.90 in1012.5 mb 0.00 in0.0 mm 0.00 in0.0 mm 0.01 in0.3 mm
12:52 AM 65.7°F18.7°C 64.8°F18.2°C 97% 2.0 mph NE3.2 kmh NE 13.0 mph20.9 kmh 29.90 in1012.5 mb 0.00 in0.0 mm 0.00 in0.0 mm 0.01 in0.3 mm
12:42 AM 65.8°F18.8°C 64.9°F18.3°C 97% 2.0 mph ENE3.2 kmh ENE 8.1 mph13.0 kmh 29.90 in1012.5 mb 0.00 in0.0 mm 0.00 in0.0 mm 0.01 in0.3 mm
12:32 AM 66.2°F19.0°C 65.3°F18.5°C 97% 2.9 mph NE4.7 kmh NE 8.9 mph14.3 kmh 29.89 in1012.2 mb 0.00 in0.0 mm 0.00 in0.0 mm 0.01 in0.3 mm
12:22 AM 66.4°F19.1°C 65.5°F18.6°C 97% 2.9 mph NE4.7 kmh NE 10.1 mph16.3 kmh 29.88 in1011.9 mb 0.00 in0.0 mm 0.00 in0.0 mm 0.01 in0.3 mm
12:12 AM 66.7°F19.3°C 65.8°F18.8°C 97% 2.0 mph E3.2 kmh E 9.0 mph14.5 kmh 29.88 in1011.9 mb 0.01 in0.3 mm 0.00 in0.0 mm 0.01 in0.3 mm
12:02 AM 66.9°F19.4°C 66.0°F18.9°C 97% 2.0 mph E3.2 kmh E 8.1 mph13.0 kmh 29.88 in1011.9 mb 0.01 in0.3 mm 0.30 in7.6 mm 0.01 in0.3 mm